sensor_id;sensor_type;location;lat;lon;timestamp;P1;durP1;ratioP1;P2;durP2;ratioP2
79539;SDS011;68991;52.122;5.406;2023-10-09T00:00:35;4.47;;;2.20;;
79539;SDS011;68991;52.122;5.406;2023-10-09T00:03:04;2.95;;;2.08;;
79539;SDS011;68991;52.122;5.406;2023-10-09T00:05:33;3.45;;;1.80;;
79539;SDS011;68991;52.122;5.406;2023-10-09T00:08:12;3.05;;;1.75;;
79539;SDS011;68991;52.122;5.406;2023-10-09T00:10:45;4.15;;;1.90;;
79539;SDS011;68991;52.122;5.406;2023-10-09T00:13:21;4.45;;;2.00;;
79539;SDS011;68991;52.122;5.406;2023-10-09T00:15:57;4.70;;;2.70;;
79539;SDS011;68991;52.122;5.406;2023-10-09T00:18:34;3.63;;;2.00;;
79539;SDS011;68991;52.122;5.406;2023-10-09T00:21:01;3.97;;;2.13;;
79539;SDS011;68991;52.122;5.406;2023-10-09T00:23:38;4.70;;;2.38;;
79539;SDS011;68991;52.122;5.406;2023-10-09T00:26:06;4.68;;;2.25;;
79539;SDS011;68991;52.122;5.406;2023-10-09T00:28:45;4.80;;;2.40;;
79539;SDS011;68991;52.122;5.406;2023-10-09T00:31:13;4.38;;;2.00;;
79539;SDS011;68991;52.122;5.406;2023-10-09T00:33:56;5.45;;;2.47;;
79539;SDS011;68991;52.122;5.406;2023-10-09T00:36:22;3.53;;;1.95;;
79539;SDS011;68991;52.122;5.406;2023-10-09T00:38:54;4.78;;;2.30;;
79539;SDS011;68991;52.122;5.406;2023-10-09T00:41:21;4.78;;;2.30;;
79539;SDS011;68991;52.122;5.406;2023-10-09T00:43:51;4.63;;;2.40;;
79539;SDS011;68991;52.122;5.406;2023-10-09T00:46:19;4.63;;;2.10;;
79539;SDS011;68991;52.122;5.406;2023-10-09T00:48:48;4.97;;;2.25;;
79539;SDS011;68991;52.122;5.406;2023-10-09T00:51:16;4.47;;;2.15;;
79539;SDS011;68991;52.122;5.406;2023-10-09T00:53:48;4.18;;;2.22;;
79539;SDS011;68991;52.122;5.406;2023-10-09T00:56:21;3.35;;;2.00;;
79539;SDS011;68991;52.122;5.406;2023-10-09T00:58:55;3.80;;;1.98;;
79539;SDS011;68991;52.122;5.406;2023-10-09T01:01:33;4.82;;;2.25;;
79539;SDS011;68991;52.122;5.406;2023-10-09T01:04:06;4.53;;;2.20;;
79539;SDS011;68991;52.122;5.406;2023-10-09T01:06:38;4.43;;;2.13;;
79539;SDS011;68991;52.122;5.406;2023-10-09T01:09:15;4.55;;;2.40;;
79539;SDS011;68991;52.122;5.406;2023-10-09T01:11:49;4.05;;;2.20;;
79539;SDS011;68991;52.122;5.406;2023-10-09T01:14:30;3.97;;;2.08;;
79539;SDS011;68991;52.122;5.406;2023-10-09T01:17:03;4.28;;;2.20;;
79539;SDS011;68991;52.122;5.406;2023-10-09T01:19:38;4.25;;;2.38;;
79539;SDS011;68991;52.122;5.406;2023-10-09T01:22:05;4.43;;;2.30;;
79539;SDS011;68991;52.122;5.406;2023-10-09T01:24:42;4.35;;;2.30;;
79539;SDS011;68991;52.122;5.406;2023-10-09T01:27:09;3.38;;;1.92;;
79539;SDS011;68991;52.122;5.406;2023-10-09T01:29:42;3.70;;;2.03;;
79539;SDS011;68991;52.122;5.406;2023-10-09T01:32:10;5.32;;;2.50;;
79539;SDS011;68991;52.122;5.406;2023-10-09T01:34:43;4.20;;;2.15;;
79539;SDS011;68991;52.122;5.406;2023-10-09T01:37:17;4.70;;;2.10;;
79539;SDS011;68991;52.122;5.406;2023-10-09T01:39:56;4.25;;;2.13;;
79539;SDS011;68991;52.122;5.406;2023-10-09T01:42:46;3.25;;;1.92;;
79539;SDS011;68991;52.122;5.406;2023-10-09T01:45:13;5.05;;;2.90;;
79539;SDS011;68991;52.122;5.406;2023-10-09T01:47:45;5.57;;;2.60;;
79539;SDS011;68991;52.122;5.406;2023-10-09T01:50:18;2.80;;;1.83;;
79539;SDS011;68991;52.122;5.406;2023-10-09T01:52:46;5.93;;;2.53;;
79539;SDS011;68991;52.122;5.406;2023-10-09T01:55:15;4.15;;;2.30;;
79539;SDS011;68991;52.122;5.406;2023-10-09T01:57:55;2.78;;;1.75;;
79539;SDS011;68991;52.122;5.406;2023-10-09T02:00:29;4.53;;;2.22;;
79539;SDS011;68991;52.122;5.406;2023-10-09T02:02:56;5.10;;;2.15;;
79539;SDS011;68991;52.122;5.406;2023-10-09T02:05:24;3.75;;;2.10;;
79539;SDS011;68991;52.122;5.406;2023-10-09T02:07:51;4.40;;;2.40;;
79539;SDS011;68991;52.122;5.406;2023-10-09T02:10:19;4.22;;;2.30;;
79539;SDS011;68991;52.122;5.406;2023-10-09T02:12:53;3.63;;;2.28;;
79539;SDS011;68991;52.122;5.406;2023-10-09T02:15:28;4.18;;;2.40;;
79539;SDS011;68991;52.122;5.406;2023-10-09T02:18:12;3.88;;;2.17;;
79539;SDS011;68991;52.122;5.406;2023-10-09T02:20:50;3.35;;;1.98;;
79539;SDS011;68991;52.122;5.406;2023-10-09T02:23:27;3.78;;;2.13;;
79539;SDS011;68991;52.122;5.406;2023-10-09T02:26:05;4.63;;;2.22;;
79539;SDS011;68991;52.122;5.406;2023-10-09T02:28:33;4.47;;;2.42;;
79539;SDS011;68991;52.122;5.406;2023-10-09T02:31:01;3.42;;;2.08;;
79539;SDS011;68991;52.122;5.406;2023-10-09T02:33:36;4.45;;;2.45;;
79539;SDS011;68991;52.122;5.406;2023-10-09T02:36:05;4.70;;;2.30;;
79539;SDS011;68991;52.122;5.406;2023-10-09T02:38:33;3.20;;;1.73;;
79539;SDS011;68991;52.122;5.406;2023-10-09T02:41:02;3.17;;;2.10;;
79539;SDS011;68991;52.122;5.406;2023-10-09T02:43:34;4.05;;;2.00;;
79539;SDS011;68991;52.122;5.406;2023-10-09T02:46:11;3.22;;;2.05;;
79539;SDS011;68991;52.122;5.406;2023-10-09T02:48:45;3.63;;;2.33;;
79539;SDS011;68991;52.122;5.406;2023-10-09T02:51:22;3.85;;;2.20;;
79539;SDS011;68991;52.122;5.406;2023-10-09T02:56:21;4.18;;;2.42;;
79539;SDS011;68991;52.122;5.406;2023-10-09T02:58:54;5.07;;;2.28;;
79539;SDS011;68991;52.122;5.406;2023-10-09T03:01:22;3.72;;;1.98;;
79539;SDS011;68991;52.122;5.406;2023-10-09T03:03:48;3.85;;;2.28;;
79539;SDS011;68991;52.122;5.406;2023-10-09T03:06:15;4.93;;;2.42;;
79539;SDS011;68991;52.122;5.406;2023-10-09T03:08:57;5.18;;;2.20;;
79539;SDS011;68991;52.122;5.406;2023-10-09T03:11:24;4.18;;;2.28;;
79539;SDS011;68991;52.122;5.406;2023-10-09T03:13:53;3.25;;;2.17;;
79539;SDS011;68991;52.122;5.406;2023-10-09T03:16:21;3.72;;;1.98;;
79539;SDS011;68991;52.122;5.406;2023-10-09T03:18:51;4.40;;;2.30;;
79539;SDS011;68991;52.122;5.406;2023-10-09T03:21:19;4.05;;;1.98;;
79539;SDS011;68991;52.122;5.406;2023-10-09T03:23:46;5.30;;;2.22;;
79539;SDS011;68991;52.122;5.406;2023-10-09T03:28:48;3.67;;;1.92;;
79539;SDS011;68991;52.122;5.406;2023-10-09T03:31:15;4.40;;;1.77;;
79539;SDS011;68991;52.122;5.406;2023-10-09T03:33:41;3.83;;;2.00;;
79539;SDS011;68991;52.122;5.406;2023-10-09T03:36:08;3.38;;;2.00;;
79539;SDS011;68991;52.122;5.406;2023-10-09T03:38:38;3.97;;;2.13;;
79539;SDS011;68991;52.122;5.406;2023-10-09T03:41:05;4.00;;;2.38;;
79539;SDS011;68991;52.122;5.406;2023-10-09T03:43:36;5.05;;;2.20;;
79539;SDS011;68991;52.122;5.406;2023-10-09T03:46:09;2.80;;;2.10;;
79539;SDS011;68991;52.122;5.406;2023-10-09T03:48:52;5.18;;;2.20;;
79539;SDS011;68991;52.122;5.406;2023-10-09T03:51:22;3.38;;;2.05;;
79539;SDS011;68991;52.122;5.406;2023-10-09T03:53:50;3.90;;;2.10;;
79539;SDS011;68991;52.122;5.406;2023-10-09T03:56:19;4.45;;;2.00;;
79539;SDS011;68991;52.122;5.406;2023-10-09T03:58:50;3.20;;;2.10;;
79539;SDS011;68991;52.122;5.406;2023-10-09T04:01:21;3.60;;;1.98;;
79539;SDS011;68991;52.122;5.406;2023-10-09T04:03:58;3.55;;;1.90;;
79539;SDS011;68991;52.122;5.406;2023-10-09T04:06:27;4.80;;;2.53;;
79539;SDS011;68991;52.122;5.406;2023-10-09T04:11:25;3.90;;;1.95;;
79539;SDS011;68991;52.122;5.406;2023-10-09T04:13:52;3.65;;;1.85;;
79539;SDS011;68991;52.122;5.406;2023-10-09T04:16:19;3.47;;;1.90;;
79539;SDS011;68991;52.122;5.406;2023-10-09T04:19:06;3.35;;;2.10;;
79539;SDS011;68991;52.122;5.406;2023-10-09T04:21:37;4.35;;;2.22;;
79539;SDS011;68991;52.122;5.406;2023-10-09T04:24:05;3.15;;;2.15;;
79539;SDS011;68991;52.122;5.406;2023-10-09T04:26:49;3.50;;;2.10;;
79539;SDS011;68991;52.122;5.406;2023-10-09T04:29:23;2.58;;;1.85;;
79539;SDS011;68991;52.122;5.406;2023-10-09T04:31:53;4.25;;;2.38;;
79539;SDS011;68991;52.122;5.406;2023-10-09T04:34:22;3.20;;;1.73;;
79539;SDS011;68991;52.122;5.406;2023-10-09T04:37:00;4.03;;;2.38;;
79539;SDS011;68991;52.122;5.406;2023-10-09T04:39:43;3.72;;;2.17;;
79539;SDS011;68991;52.122;5.406;2023-10-09T04:42:13;3.63;;;2.00;;
79539;SDS011;68991;52.122;5.406;2023-10-09T04:44:50;3.28;;;1.92;;
79539;SDS011;68991;52.122;5.406;2023-10-09T04:47:26;5.13;;;2.15;;
79539;SDS011;68991;52.122;5.406;2023-10-09T04:50:05;3.65;;;1.85;;
79539;SDS011;68991;52.122;5.406;2023-10-09T04:52:38;4.43;;;2.28;;
79539;SDS011;68991;52.122;5.406;2023-10-09T04:55:05;4.18;;;2.05;;
79539;SDS011;68991;52.122;5.406;2023-10-09T04:57:35;3.08;;;1.95;;
79539;SDS011;68991;52.122;5.406;2023-10-09T05:00:16;5.80;;;2.03;;
79539;SDS011;68991;52.122;5.406;2023-10-09T05:02:55;5.35;;;2.38;;
79539;SDS011;68991;52.122;5.406;2023-10-09T05:05:27;4.18;;;1.95;;
79539;SDS011;68991;52.122;5.406;2023-10-09T05:08:03;3.08;;;1.80;;
79539;SDS011;68991;52.122;5.406;2023-10-09T05:10:55;3.63;;;2.03;;
79539;SDS011;68991;52.122;5.406;2023-10-09T05:13:31;3.58;;;2.00;;
79539;SDS011;68991;52.122;5.406;2023-10-09T05:16:18;4.32;;;2.33;;
79539;SDS011;68991;52.122;5.406;2023-10-09T05:18:46;3.83;;;2.10;;
79539;SDS011;68991;52.122;5.406;2023-10-09T05:21:23;3.65;;;2.05;;
79539;SDS011;68991;52.122;5.406;2023-10-09T05:23:59;5.57;;;1.80;;
79539;SDS011;68991;52.122;5.406;2023-10-09T05:26:40;4.25;;;1.75;;
79539;SDS011;68991;52.122;5.406;2023-10-09T05:29:21;3.03;;;1.80;;
79539;SDS011;68991;52.122;5.406;2023-10-09T05:31:51;5.45;;;2.30;;
79539;SDS011;68991;52.122;5.406;2023-10-09T05:34:24;4.45;;;2.13;;
79539;SDS011;68991;52.122;5.406;2023-10-09T05:37:01;5.55;;;2.17;;
79539;SDS011;68991;52.122;5.406;2023-10-09T05:39:58;5.68;;;1.90;;
79539;SDS011;68991;52.122;5.406;2023-10-09T05:45:09;3.17;;;2.00;;
79539;SDS011;68991;52.122;5.406;2023-10-09T05:48:08;2.72;;;1.52;;
79539;SDS011;68991;52.122;5.406;2023-10-09T05:50:44;5.43;;;1.95;;
79539;SDS011;68991;52.122;5.406;2023-10-09T05:53:46;2.95;;;1.90;;
79539;SDS011;68991;52.122;5.406;2023-10-09T05:56:12;3.28;;;2.00;;
79539;SDS011;68991;52.122;5.406;2023-10-09T05:58:58;4.85;;;1.98;;
79539;SDS011;68991;52.122;5.406;2023-10-09T06:02:03;3.60;;;2.13;;
79539;SDS011;68991;52.122;5.406;2023-10-09T06:04:48;4.47;;;2.10;;
79539;SDS011;68991;52.122;5.406;2023-10-09T06:07:21;4.10;;;1.92;;
79539;SDS011;68991;52.122;5.406;2023-10-09T06:10:07;4.13;;;2.20;;
79539;SDS011;68991;52.122;5.406;2023-10-09T06:12:44;3.20;;;1.88;;
79539;SDS011;68991;52.122;5.406;2023-10-09T06:15:15;3.78;;;2.25;;
79539;SDS011;68991;52.122;5.406;2023-10-09T06:18:17;4.78;;;2.00;;
79539;SDS011;68991;52.122;5.406;2023-10-09T06:20:52;3.78;;;1.83;;
79539;SDS011;68991;52.122;5.406;2023-10-09T06:23:57;3.88;;;2.00;;
79539;SDS011;68991;52.122;5.406;2023-10-09T06:26:36;3.42;;;1.83;;
79539;SDS011;68991;52.122;5.406;2023-10-09T06:29:02;3.40;;;1.90;;
79539;SDS011;68991;52.122;5.406;2023-10-09T06:31:41;3.55;;;1.92;;
79539;SDS011;68991;52.122;5.406;2023-10-09T06:34:26;3.47;;;1.92;;
79539;SDS011;68991;52.122;5.406;2023-10-09T06:37:01;3.95;;;1.95;;
79539;SDS011;68991;52.122;5.406;2023-10-09T06:39:44;3.47;;;2.05;;
79539;SDS011;68991;52.122;5.406;2023-10-09T06:42:31;5.15;;;2.22;;
79539;SDS011;68991;52.122;5.406;2023-10-09T06:45:01;3.38;;;1.80;;
79539;SDS011;68991;52.122;5.406;2023-10-09T06:47:31;3.55;;;1.70;;
79539;SDS011;68991;52.122;5.406;2023-10-09T06:50:11;3.60;;;1.70;;
79539;SDS011;68991;52.122;5.406;2023-10-09T06:52:47;4.47;;;2.10;;
79539;SDS011;68991;52.122;5.406;2023-10-09T06:55:24;3.63;;;2.40;;
79539;SDS011;68991;52.122;5.406;2023-10-09T06:58:02;3.30;;;1.67;;
79539;SDS011;68991;52.122;5.406;2023-10-09T07:00:39;4.60;;;1.73;;
79539;SDS011;68991;52.122;5.406;2023-10-09T07:03:20;3.30;;;2.05;;
79539;SDS011;68991;52.122;5.406;2023-10-09T07:06:05;3.88;;;1.88;;
79539;SDS011;68991;52.122;5.406;2023-10-09T07:08:51;3.33;;;1.70;;
79539;SDS011;68991;52.122;5.406;2023-10-09T07:11:33;3.88;;;2.03;;
79539;SDS011;68991;52.122;5.406;2023-10-09T07:14:11;3.25;;;1.67;;
79539;SDS011;68991;52.122;5.406;2023-10-09T07:16:58;3.97;;;1.77;;
79539;SDS011;68991;52.122;5.406;2023-10-09T07:19:27;3.17;;;2.03;;
79539;SDS011;68991;52.122;5.406;2023-10-09T07:22:00;5.57;;;2.00;;
79539;SDS011;68991;52.122;5.406;2023-10-09T07:24:29;3.15;;;1.85;;
79539;SDS011;68991;52.122;5.406;2023-10-09T07:27:10;6.60;;;2.22;;
79539;SDS011;68991;52.122;5.406;2023-10-09T07:29:40;3.95;;;2.00;;
79539;SDS011;68991;52.122;5.406;2023-10-09T07:32:16;4.68;;;2.22;;
79539;SDS011;68991;52.122;5.406;2023-10-09T07:34:49;3.30;;;1.73;;
79539;SDS011;68991;52.122;5.406;2023-10-09T07:39:49;4.65;;;1.98;;
79539;SDS011;68991;52.122;5.406;2023-10-09T07:42:24;2.88;;;1.73;;
79539;SDS011;68991;52.122;5.406;2023-10-09T07:45:07;2.95;;;1.80;;
79539;SDS011;68991;52.122;5.406;2023-10-09T07:47:46;3.45;;;1.67;;
79539;SDS011;68991;52.122;5.406;2023-10-09T07:50:26;3.42;;;2.05;;
79539;SDS011;68991;52.122;5.406;2023-10-09T07:53:05;4.30;;;2.03;;
79539;SDS011;68991;52.122;5.406;2023-10-09T07:55:41;4.75;;;2.30;;
79539;SDS011;68991;52.122;5.406;2023-10-09T07:58:15;3.30;;;2.00;;
79539;SDS011;68991;52.122;5.406;2023-10-09T08:00:42;2.95;;;1.70;;
79539;SDS011;68991;52.122;5.406;2023-10-09T08:03:27;4.10;;;1.98;;
79539;SDS011;68991;52.122;5.406;2023-10-09T08:05:59;3.38;;;1.98;;
79539;SDS011;68991;52.122;5.406;2023-10-09T08:08:45;5.18;;;2.08;;
79539;SDS011;68991;52.122;5.406;2023-10-09T08:11:30;4.35;;;1.95;;
79539;SDS011;68991;52.122;5.406;2023-10-09T08:14:06;4.45;;;2.17;;
79539;SDS011;68991;52.122;5.406;2023-10-09T08:16:50;3.83;;;1.90;;
79539;SDS011;68991;52.122;5.406;2023-10-09T08:19:38;4.60;;;2.15;;
79539;SDS011;68991;52.122;5.406;2023-10-09T08:24:56;4.18;;;2.00;;
79539;SDS011;68991;52.122;5.406;2023-10-09T08:29:59;3.20;;;1.92;;
79539;SDS011;68991;52.122;5.406;2023-10-09T08:32:54;3.13;;;2.10;;
79539;SDS011;68991;52.122;5.406;2023-10-09T08:35:30;3.85;;;1.88;;
79539;SDS011;68991;52.122;5.406;2023-10-09T08:40:37;2.90;;;1.70;;
79539;SDS011;68991;52.122;5.406;2023-10-09T08:43:09;4.85;;;1.90;;
79539;SDS011;68991;52.122;5.406;2023-10-09T08:45:39;3.00;;;1.80;;
79539;SDS011;68991;52.122;5.406;2023-10-09T08:48:11;3.47;;;1.60;;
79539;SDS011;68991;52.122;5.406;2023-10-09T08:50:53;3.13;;;1.63;;
79539;SDS011;68991;52.122;5.406;2023-10-09T08:53:21;3.55;;;1.85;;
79539;SDS011;68991;52.122;5.406;2023-10-09T08:55:50;3.47;;;2.00;;
79539;SDS011;68991;52.122;5.406;2023-10-09T08:58:17;4.20;;;2.00;;
79539;SDS011;68991;52.122;5.406;2023-10-09T09:00:46;2.78;;;1.52;;
79539;SDS011;68991;52.122;5.406;2023-10-09T09:03:14;4.40;;;1.90;;
79539;SDS011;68991;52.122;5.406;2023-10-09T09:05:46;3.08;;;1.90;;
79539;SDS011;68991;52.122;5.406;2023-10-09T09:08:24;3.17;;;1.80;;
79539;SDS011;68991;52.122;5.406;2023-10-09T09:11:01;4.07;;;2.13;;
79539;SDS011;68991;52.122;5.406;2023-10-09T09:13:39;3.42;;;2.03;;
79539;SDS011;68991;52.122;5.406;2023-10-09T09:16:15;2.88;;;1.90;;
79539;SDS011;68991;52.122;5.406;2023-10-09T09:21:27;4.75;;;1.83;;
79539;SDS011;68991;52.122;5.406;2023-10-09T09:23:58;3.70;;;2.40;;
79539;SDS011;68991;52.122;5.406;2023-10-09T09:26:34;4.93;;;2.25;;
79539;SDS011;68991;52.122;5.406;2023-10-09T09:29:14;4.00;;;2.40;;
79539;SDS011;68991;52.122;5.406;2023-10-09T09:31:54;4.97;;;2.10;;
79539;SDS011;68991;52.122;5.406;2023-10-09T09:34:23;5.10;;;2.22;;
79539;SDS011;68991;52.122;5.406;2023-10-09T09:36:57;6.45;;;2.60;;
79539;SDS011;68991;52.122;5.406;2023-10-09T09:39:25;3.75;;;2.15;;
79539;SDS011;68991;52.122;5.406;2023-10-09T09:42:03;4.55;;;2.25;;
79539;SDS011;68991;52.122;5.406;2023-10-09T09:44:34;5.60;;;2.40;;
79539;SDS011;68991;52.122;5.406;2023-10-09T09:47:13;5.38;;;2.38;;
79539;SDS011;68991;52.122;5.406;2023-10-09T09:49:42;4.25;;;2.00;;
79539;SDS011;68991;52.122;5.406;2023-10-09T09:52:09;2.83;;;1.80;;
79539;SDS011;68991;52.122;5.406;2023-10-09T09:54:39;4.65;;;2.45;;
79539;SDS011;68991;52.122;5.406;2023-10-09T09:57:06;3.08;;;1.77;;
79539;SDS011;68991;52.122;5.406;2023-10-09T09:59:37;4.85;;;1.95;;
79539;SDS011;68991;52.122;5.406;2023-10-09T10:02:18;4.78;;;2.20;;
79539;SDS011;68991;52.122;5.406;2023-10-09T10:04:54;3.85;;;2.00;;
79539;SDS011;68991;52.122;5.406;2023-10-09T10:07:23;3.25;;;1.73;;
79539;SDS011;68991;52.122;5.406;2023-10-09T10:09:54;3.92;;;2.13;;
79539;SDS011;68991;52.122;5.406;2023-10-09T10:18:23;3.38;;;2.10;;
79539;SDS011;68991;52.122;5.406;2023-10-09T10:23:44;4.53;;;2.00;;
79539;SDS011;68991;52.122;5.406;2023-10-09T10:26:18;3.85;;;2.00;;
79539;SDS011;68991;52.122;5.406;2023-10-09T10:32:04;4.13;;;2.10;;
79539;SDS011;68991;52.122;5.406;2023-10-09T10:34:55;5.90;;;2.10;;
79539;SDS011;68991;52.122;5.406;2023-10-09T10:37:37;3.38;;;1.90;;
79539;SDS011;68991;52.122;5.406;2023-10-09T10:40:10;4.85;;;2.05;;
79539;SDS011;68991;52.122;5.406;2023-10-09T10:42:46;5.22;;;2.00;;
79539;SDS011;68991;52.122;5.406;2023-10-09T10:45:34;3.75;;;1.90;;
79539;SDS011;68991;52.122;5.406;2023-10-09T10:48:02;4.13;;;2.10;;
79539;SDS011;68991;52.122;5.406;2023-10-09T10:50:35;4.95;;;2.25;;
79539;SDS011;68991;52.122;5.406;2023-10-09T10:53:09;2.97;;;1.85;;
79539;SDS011;68991;52.122;5.406;2023-10-09T10:55:59;6.45;;;2.90;;
79539;SDS011;68991;52.122;5.406;2023-10-09T10:58:54;4.03;;;1.90;;
79539;SDS011;68991;52.122;5.406;2023-10-09T11:01:30;3.35;;;1.90;;
79539;SDS011;68991;52.122;5.406;2023-10-09T11:04:29;3.97;;;2.22;;
79539;SDS011;68991;52.122;5.406;2023-10-09T11:06:57;3.38;;;2.00;;
79539;SDS011;68991;52.122;5.406;2023-10-09T11:09:45;4.22;;;2.03;;
79539;SDS011;68991;52.122;5.406;2023-10-09T11:12:41;6.43;;;2.13;;
79539;SDS011;68991;52.122;5.406;2023-10-09T11:15:31;4.05;;;2.30;;
79539;SDS011;68991;52.122;5.406;2023-10-09T11:18:11;3.70;;;1.88;;
79539;SDS011;68991;52.122;5.406;2023-10-09T11:20:48;3.13;;;1.90;;
79539;SDS011;68991;52.122;5.406;2023-10-09T11:23:31;3.65;;;1.77;;
79539;SDS011;68991;52.122;5.406;2023-10-09T11:26:01;3.55;;;2.17;;
79539;SDS011;68991;52.122;5.406;2023-10-09T11:32:05;4.22;;;2.35;;
79539;SDS011;68991;52.122;5.406;2023-10-09T11:34:33;4.22;;;1.60;;
79539;SDS011;68991;52.122;5.406;2023-10-09T11:37:02;2.92;;;1.63;;
79539;SDS011;68991;52.122;5.406;2023-10-09T11:39:38;6.80;;;2.28;;
79539;SDS011;68991;52.122;5.406;2023-10-09T11:42:22;3.30;;;1.90;;
79539;SDS011;68991;52.122;5.406;2023-10-09T11:45:07;3.50;;;2.13;;
79539;SDS011;68991;52.122;5.406;2023-10-09T11:47:49;6.47;;;2.10;;
79539;SDS011;68991;52.122;5.406;2023-10-09T11:53:17;6.32;;;2.47;;
79539;SDS011;68991;52.122;5.406;2023-10-09T11:55:48;5.72;;;2.20;;
79539;SDS011;68991;52.122;5.406;2023-10-09T11:58:16;4.15;;;1.90;;
79539;SDS011;68991;52.122;5.406;2023-10-09T12:00:56;3.35;;;1.90;;
79539;SDS011;68991;52.122;5.406;2023-10-09T12:03:30;3.30;;;2.15;;
79539;SDS011;68991;52.122;5.406;2023-10-09T12:05:59;3.88;;;1.90;;
79539;SDS011;68991;52.122;5.406;2023-10-09T12:08:40;4.47;;;2.20;;
79539;SDS011;68991;52.122;5.406;2023-10-09T12:11:07;3.42;;;2.22;;
79539;SDS011;68991;52.122;5.406;2023-10-09T12:13:37;7.97;;;2.30;;
79539;SDS011;68991;52.122;5.406;2023-10-09T12:16:05;3.28;;;1.85;;
79539;SDS011;68991;52.122;5.406;2023-10-09T12:18:37;2.90;;;1.90;;
79539;SDS011;68991;52.122;5.406;2023-10-09T12:21:06;3.75;;;2.00;;
79539;SDS011;68991;52.122;5.406;2023-10-09T12:23:33;3.63;;;1.90;;
79539;SDS011;68991;52.122;5.406;2023-10-09T12:26:02;5.28;;;2.25;;
79539;SDS011;68991;52.122;5.406;2023-10-09T12:28:30;3.22;;;2.00;;
79539;SDS011;68991;52.122;5.406;2023-10-09T12:30:59;4.10;;;2.28;;
79539;SDS011;68991;52.122;5.406;2023-10-09T12:33:28;6.95;;;2.55;;
79539;SDS011;68991;52.122;5.406;2023-10-09T12:35:56;3.30;;;2.00;;
79539;SDS011;68991;52.122;5.406;2023-10-09T12:38:27;4.97;;;2.13;;
79539;SDS011;68991;52.122;5.406;2023-10-09T12:41:01;3.75;;;1.75;;
79539;SDS011;68991;52.122;5.406;2023-10-09T12:43:35;4.38;;;1.98;;
79539;SDS011;68991;52.122;5.406;2023-10-09T12:46:05;3.83;;;1.77;;
79539;SDS011;68991;52.122;5.406;2023-10-09T12:48:33;4.68;;;2.08;;
79539;SDS011;68991;52.122;5.406;2023-10-09T12:51:00;3.55;;;2.03;;
79539;SDS011;68991;52.122;5.406;2023-10-09T12:53:32;4.38;;;2.22;;
79539;SDS011;68991;52.122;5.406;2023-10-09T12:55:59;3.95;;;2.15;;
79539;SDS011;68991;52.122;5.406;2023-10-09T12:58:26;3.90;;;2.13;;
79539;SDS011;68991;52.122;5.406;2023-10-09T13:00:53;4.78;;;1.98;;
79539;SDS011;68991;52.122;5.406;2023-10-09T13:03:20;4.30;;;2.38;;
79539;SDS011;68991;52.122;5.406;2023-10-09T13:05:49;6.70;;;2.30;;
79539;SDS011;68991;52.122;5.406;2023-10-09T13:08:27;3.65;;;1.80;;
79539;SDS011;68991;52.122;5.406;2023-10-09T13:11:01;3.90;;;1.70;;
79539;SDS011;68991;52.122;5.406;2023-10-09T13:13:37;4.65;;;2.13;;
79539;SDS011;68991;52.122;5.406;2023-10-09T13:16:13;7.50;;;2.25;;
79539;SDS011;68991;52.122;5.406;2023-10-09T13:18:51;5.95;;;2.30;;
79539;SDS011;68991;52.122;5.406;2023-10-09T13:21:20;6.25;;;2.15;;
79539;SDS011;68991;52.122;5.406;2023-10-09T13:23:47;4.88;;;2.03;;
79539;SDS011;68991;52.122;5.406;2023-10-09T13:26:16;4.22;;;2.20;;
79539;SDS011;68991;52.122;5.406;2023-10-09T13:28:58;4.38;;;2.00;;
79539;SDS011;68991;52.122;5.406;2023-10-09T13:31:25;6.63;;;2.10;;
79539;SDS011;68991;52.122;5.406;2023-10-09T13:33:53;4.32;;;2.20;;
79539;SDS011;68991;52.122;5.406;2023-10-09T13:36:25;4.13;;;2.42;;
79539;SDS011;68991;52.122;5.406;2023-10-09T13:39:13;3.13;;;2.03;;
79539;SDS011;68991;52.122;5.406;2023-10-09T13:42:12;5.55;;;2.15;;
79539;SDS011;68991;52.122;5.406;2023-10-09T13:44:40;4.38;;;2.08;;
79539;SDS011;68991;52.122;5.406;2023-10-09T13:47:08;5.35;;;1.92;;
79539;SDS011;68991;52.122;5.406;2023-10-09T13:49:46;2.40;;;1.60;;
79539;SDS011;68991;52.122;5.406;2023-10-09T13:52:17;5.97;;;2.35;;
79539;SDS011;68991;52.122;5.406;2023-10-09T13:54:45;5.25;;;2.35;;
79539;SDS011;68991;52.122;5.406;2023-10-09T13:57:16;3.72;;;1.90;;
79539;SDS011;68991;52.122;5.406;2023-10-09T13:59:42;4.13;;;2.00;;
79539;SDS011;68991;52.122;5.406;2023-10-09T14:02:15;6.43;;;2.15;;
79539;SDS011;68991;52.122;5.406;2023-10-09T14:04:47;5.13;;;2.47;;
79539;SDS011;68991;52.122;5.406;2023-10-09T14:07:14;4.28;;;1.88;;
79539;SDS011;68991;52.122;5.406;2023-10-09T14:09:47;5.50;;;2.13;;
79539;SDS011;68991;52.122;5.406;2023-10-09T14:12:22;3.47;;;2.25;;
79539;SDS011;68991;52.122;5.406;2023-10-09T14:14:51;5.03;;;2.25;;
79539;SDS011;68991;52.122;5.406;2023-10-09T14:17:21;5.07;;;2.22;;
79539;SDS011;68991;52.122;5.406;2023-10-09T14:19:55;5.03;;;2.05;;
79539;SDS011;68991;52.122;5.406;2023-10-09T14:22:27;4.05;;;2.00;;
79539;SDS011;68991;52.122;5.406;2023-10-09T14:24:55;5.80;;;2.10;;
79539;SDS011;68991;52.122;5.406;2023-10-09T14:27:22;3.72;;;2.50;;
79539;SDS011;68991;52.122;5.406;2023-10-09T14:29:53;5.32;;;2.58;;
79539;SDS011;68991;52.122;5.406;2023-10-09T14:32:27;4.20;;;2.03;;
79539;SDS011;68991;52.122;5.406;2023-10-09T14:35:10;5.57;;;2.60;;
79539;SDS011;68991;52.122;5.406;2023-10-09T14:37:40;3.60;;;1.90;;
79539;SDS011;68991;52.122;5.406;2023-10-09T14:40:07;5.45;;;2.05;;
79539;SDS011;68991;52.122;5.406;2023-10-09T14:42:39;2.78;;;1.95;;
79539;SDS011;68991;52.122;5.406;2023-10-09T14:45:10;3.55;;;2.28;;
79539;SDS011;68991;52.122;5.406;2023-10-09T14:47:42;5.25;;;2.30;;
79539;SDS011;68991;52.122;5.406;2023-10-09T14:50:09;3.58;;;2.00;;
79539;SDS011;68991;52.122;5.406;2023-10-09T14:52:36;3.65;;;2.00;;
79539;SDS011;68991;52.122;5.406;2023-10-09T14:55:05;4.75;;;2.45;;
79539;SDS011;68991;52.122;5.406;2023-10-09T14:57:32;6.63;;;2.17;;
79539;SDS011;68991;52.122;5.406;2023-10-09T15:00:03;4.78;;;2.08;;
79539;SDS011;68991;52.122;5.406;2023-10-09T15:02:40;10.23;;;2.38;;
79539;SDS011;68991;52.122;5.406;2023-10-09T15:05:06;4.85;;;1.92;;
79539;SDS011;68991;52.122;5.406;2023-10-09T15:07:38;6.28;;;2.17;;
79539;SDS011;68991;52.122;5.406;2023-10-09T15:10:10;5.30;;;2.35;;
79539;SDS011;68991;52.122;5.406;2023-10-09T15:12:41;5.85;;;2.10;;
79539;SDS011;68991;52.122;5.406;2023-10-09T15:15:09;5.13;;;2.05;;
79539;SDS011;68991;52.122;5.406;2023-10-09T15:17:51;5.63;;;2.50;;
79539;SDS011;68991;52.122;5.406;2023-10-09T15:20:17;4.45;;;2.13;;
79539;SDS011;68991;52.122;5.406;2023-10-09T15:22:44;5.00;;;2.17;;
79539;SDS011;68991;52.122;5.406;2023-10-09T15:25:12;4.82;;;2.00;;
79539;SDS011;68991;52.122;5.406;2023-10-09T15:27:41;5.80;;;2.40;;
79539;SDS011;68991;52.122;5.406;2023-10-09T15:30:09;6.30;;;2.70;;
79539;SDS011;68991;52.122;5.406;2023-10-09T15:32:40;11.18;;;2.50;;
79539;SDS011;68991;52.122;5.406;2023-10-09T15:35:07;5.68;;;2.80;;
79539;SDS011;68991;52.122;5.406;2023-10-09T15:37:39;6.05;;;2.78;;
79539;SDS011;68991;52.122;5.406;2023-10-09T15:40:07;6.93;;;2.97;;
79539;SDS011;68991;52.122;5.406;2023-10-09T15:42:41;8.32;;;2.85;;
79539;SDS011;68991;52.122;5.406;2023-10-09T15:45:09;9.23;;;3.40;;
79539;SDS011;68991;52.122;5.406;2023-10-09T15:47:38;6.53;;;3.40;;
79539;SDS011;68991;52.122;5.406;2023-10-09T15:50:06;11.32;;;3.60;;
79539;SDS011;68991;52.122;5.406;2023-10-09T15:52:35;12.77;;;4.78;;
79539;SDS011;68991;52.122;5.406;2023-10-09T15:55:05;7.85;;;3.20;;
79539;SDS011;68991;52.122;5.406;2023-10-09T15:57:39;8.25;;;3.35;;
79539;SDS011;68991;52.122;5.406;2023-10-09T16:00:08;9.38;;;3.40;;
79539;SDS011;68991;52.122;5.406;2023-10-09T16:02:44;10.63;;;4.57;;
79539;SDS011;68991;52.122;5.406;2023-10-09T16:05:12;12.15;;;4.75;;
79539;SDS011;68991;52.122;5.406;2023-10-09T16:07:39;14.32;;;6.22;;
79539;SDS011;68991;52.122;5.406;2023-10-09T16:10:06;11.75;;;5.60;;